createdAt,value
2017-04-07T00:00:43.318Z,8.10
2017-04-07T00:01:41.795Z,8.10
2017-04-07T00:02:40.007Z,8.00
2017-04-07T00:03:38.194Z,7.80
2017-04-07T00:04:36.640Z,7.80
2017-04-07T00:05:35.482Z,7.80
2017-04-07T00:06:33.591Z,7.80
2017-04-07T00:07:32.808Z,7.90
2017-04-07T00:08:30.973Z,8.00
2017-04-07T00:09:28.709Z,7.90
2017-04-07T00:10:26.859Z,8.00
2017-04-07T00:11:24.565Z,7.90
2017-04-07T00:12:22.483Z,7.90
2017-04-07T00:13:21.208Z,7.80
2017-04-07T00:14:20.123Z,7.90
2017-04-07T00:15:18.991Z,7.90
2017-04-07T00:16:17.534Z,8.10
2017-04-07T00:17:15.411Z,8.10
2017-04-07T00:18:13.579Z,8.20
2017-04-07T00:19:11.647Z,8.20
2017-04-07T00:20:10.164Z,8.20
2017-04-07T00:21:08.084Z,8.10
2017-04-07T00:22:06.004Z,8.10
2017-04-07T00:23:04.912Z,8.00
2017-04-07T00:24:02.764Z,8.00
2017-04-07T00:25:01.097Z,8.10
2017-04-07T00:25:59.547Z,8.00
2017-04-07T00:26:57.417Z,8.00
2017-04-07T00:27:55.746Z,8.00
2017-04-07T00:28:53.960Z,8.00
2017-04-07T00:29:51.698Z,7.90
2017-04-07T00:30:49.555Z,7.80
2017-04-07T00:31:47.399Z,7.90
2017-04-07T00:32:45.450Z,8.00
2017-04-07T00:33:43.863Z,8.00
2017-04-07T00:34:42.428Z,8.00
2017-04-07T00:35:40.397Z,8.00
2017-04-07T00:36:38.341Z,7.90
2017-04-07T00:37:37.432Z,8.00
2017-04-07T00:38:35.374Z,7.90
2017-04-07T00:39:33.639Z,8.00
2017-04-07T00:40:32.059Z,7.90
2017-04-07T00:41:30.371Z,7.80
2017-04-07T00:42:28.717Z,7.90
2017-04-07T00:43:26.803Z,7.90
2017-04-07T00:44:24.813Z,7.90
2017-04-07T00:45:22.834Z,7.90
2017-04-07T00:46:21.824Z,8.00
2017-04-07T00:47:20.335Z,7.90
2017-04-07T00:48:18.971Z,7.80
2017-04-07T00:49:16.707Z,7.80
2017-04-07T00:50:14.894Z,7.70
2017-04-07T00:51:13.229Z,7.70
2017-04-07T00:52:11.123Z,7.60
2017-04-07T00:53:11.013Z,7.60
2017-04-07T00:54:09.173Z,7.70
2017-04-07T00:55:07.739Z,7.50
2017-04-07T00:56:06.116Z,7.40
2017-04-07T00:57:04.507Z,7.40
2017-04-07T00:58:03.168Z,7.40
2017-04-07T00:59:02.256Z,7.40
2017-04-07T01:00:01.199Z,7.50
2017-04-07T01:00:59.340Z,7.50
2017-04-07T01:01:57.339Z,7.50
2017-04-07T01:02:55.203Z,7.50
2017-04-07T01:03:53.806Z,7.50
2017-04-07T01:04:51.751Z,7.40
2017-04-07T01:05:49.452Z,7.40
2017-04-07T01:06:47.122Z,7.60
2017-04-07T01:07:44.748Z,7.50
2017-04-07T01:08:42.646Z,7.50
2017-04-07T01:09:40.996Z,7.50
2017-04-07T01:10:38.685Z,7.50
2017-04-07T01:11:36.473Z,7.60
2017-04-07T01:12:34.248Z,7.40
2017-04-07T01:13:39.172Z,7.40
2017-04-07T01:14:36.921Z,7.40
2017-04-07T01:15:35.106Z,7.40
2017-04-07T01:16:33.391Z,7.40
2017-04-07T01:17:31.348Z,7.30
2017-04-07T01:18:29.074Z,7.30
2017-04-07T01:19:26.734Z,7.10
2017-04-07T01:20:24.431Z,7.00
2017-04-07T01:21:22.546Z,6.90
2017-04-07T01:22:20.386Z,6.80
2017-04-07T01:23:18.756Z,6.90
2017-04-07T01:24:16.579Z,6.90
2017-04-07T01:25:14.303Z,7.00
2017-04-07T01:26:12.236Z,7.00
2017-04-07T01:27:09.956Z,6.80
2017-04-07T01:28:07.616Z,6.80
2017-04-07T01:29:06.489Z,6.70
2017-04-07T01:30:04.813Z,6.60
2017-04-07T01:31:03.259Z,6.70
2017-04-07T01:32:00.987Z,6.80
2017-04-07T01:32:58.820Z,6.70
2017-04-07T01:33:57.191Z,6.70
2017-04-07T01:34:55.059Z,6.60
2017-04-07T01:35:52.827Z,6.50
2017-04-07T01:36:50.863Z,6.40
2017-04-07T01:37:48.728Z,6.30
2017-04-07T01:38:46.476Z,6.20
2017-04-07T01:39:44.761Z,6.20
2017-04-07T01:40:42.724Z,6.30
2017-04-07T01:41:40.595Z,6.30
2017-04-07T01:42:38.409Z,6.30
2017-04-07T01:43:36.368Z,6.20
2017-04-07T01:44:34.064Z,6.30
2017-04-07T01:45:31.825Z,6.30
2017-04-07T01:46:29.772Z,6.30
2017-04-07T01:47:28.473Z,6.40
2017-04-07T01:48:26.299Z,6.30
2017-04-07T01:49:24.112Z,6.50
2017-04-07T01:50:21.819Z,6.50
2017-04-07T01:51:20.573Z,6.50
2017-04-07T01:52:19.172Z,6.50
2017-04-07T01:53:16.867Z,6.40
2017-04-07T01:54:14.644Z,6.30
2017-04-07T01:55:12.385Z,6.30
2017-04-07T01:56:10.153Z,6.10
2017-04-07T01:57:07.885Z,6.00
2017-04-07T01:58:05.500Z,5.90
2017-04-07T01:59:04.186Z,5.90
2017-04-07T02:00:02.081Z,5.80
2017-04-07T02:00:59.964Z,5.90
2017-04-07T02:01:57.654Z,5.80
2017-04-07T02:02:55.588Z,5.80
2017-04-07T02:03:53.444Z,5.70
2017-04-07T02:04:51.113Z,5.70
2017-04-07T02:05:48.789Z,5.70
2017-04-07T02:06:46.688Z,5.70
2017-04-07T02:07:44.359Z,5.70
2017-04-07T02:08:42.021Z,5.70
2017-04-07T02:09:39.803Z,5.70
2017-04-07T02:10:37.614Z,5.70
2017-04-07T02:11:35.267Z,5.60
2017-04-07T02:12:32.976Z,5.50
2017-04-07T02:13:31.217Z,5.60
2017-04-07T02:14:29.411Z,5.60
2017-04-07T02:15:27.642Z,5.70
2017-04-07T02:16:25.528Z,6.00
2017-04-07T02:17:23.393Z,6.10
2017-04-07T02:18:21.064Z,6.20
2017-04-07T02:19:18.952Z,6.30
2017-04-07T02:20:16.652Z,6.20
2017-04-07T02:21:14.344Z,6.10
2017-04-07T02:22:12.758Z,6.10
2017-04-07T02:23:10.626Z,6.10
2017-04-07T02:24:09.191Z,6.00
2017-04-07T02:25:07.100Z,5.90
2017-04-07T02:26:04.759Z,5.90
2017-04-07T02:27:02.611Z,5.90
2017-04-07T02:28:00.490Z,6.00
2017-04-07T02:28:58.323Z,6.10
2017-04-07T02:29:56.020Z,6.00
2017-04-07T02:30:54.311Z,6.00
2017-04-07T02:31:52.241Z,5.90
2017-04-07T02:32:49.920Z,5.80
2017-04-07T02:33:48.203Z,5.80
2017-04-07T02:34:46.011Z,5.90
2017-04-07T02:35:46.760Z,6.00
2017-04-07T02:38:38.037Z,6.00
2017-04-07T02:39:35.695Z,5.90
2017-04-07T02:40:33.595Z,6.00
2017-04-07T02:41:31.317Z,6.10
2017-04-07T02:42:29.201Z,6.30
2017-04-07T02:43:27.019Z,6.50
2017-04-07T02:44:24.781Z,6.60
2017-04-07T02:45:22.605Z,6.60
2017-04-07T02:46:20.271Z,6.50
2017-04-07T02:47:18.053Z,6.50
2017-04-07T02:48:15.852Z,6.50
2017-04-07T02:49:14.164Z,6.50
2017-04-07T02:50:11.921Z,6.50
2017-04-07T02:51:09.600Z,6.40
2017-04-07T02:52:07.291Z,6.40
2017-04-07T02:53:05.008Z,6.60
2017-04-07T02:54:02.660Z,6.70
2017-04-07T02:55:00.947Z,6.80
2017-04-07T02:55:58.663Z,6.90
2017-04-07T02:56:56.291Z,6.90
2017-04-07T02:57:54.699Z,6.80
2017-04-07T02:58:52.324Z,6.70
2017-04-07T02:59:50.007Z,6.70
2017-04-07T03:00:49.242Z,6.60
2017-04-07T03:01:47.016Z,6.50
2017-04-07T03:02:46.068Z,6.40
2017-04-07T03:03:44.271Z,6.30
2017-04-07T03:04:42.155Z,6.30
2017-04-07T03:05:39.872Z,6.30
2017-04-07T03:06:37.575Z,6.20
2017-04-07T03:07:35.422Z,6.10
2017-04-07T03:08:33.139Z,6.00
2017-04-07T03:09:30.796Z,6.10
2017-04-07T03:10:29.520Z,6.00
2017-04-07T03:11:27.163Z,6.00
2017-04-07T03:12:24.799Z,6.10
2017-04-07T03:13:22.627Z,6.20
2017-04-07T03:14:20.279Z,6.30
2017-04-07T03:15:17.993Z,6.60
2017-04-07T03:16:15.840Z,6.80
2017-04-07T03:17:13.487Z,6.90
2017-04-07T03:18:11.185Z,6.90
2017-04-07T03:19:09.144Z,6.90
2017-04-07T03:20:07.132Z,6.80
2017-04-07T03:21:04.780Z,6.90
2017-04-07T03:22:02.603Z,6.90
2017-04-07T03:23:00.488Z,6.90
2017-04-07T03:23:58.219Z,6.80
2017-04-07T03:24:55.856Z,6.70
2017-04-07T03:25:54.120Z,6.60
2017-04-07T03:26:51.920Z,6.70
2017-04-07T03:27:49.568Z,6.70
2017-04-07T03:28:47.248Z,6.70
2017-04-07T03:29:44.951Z,6.70
2017-04-07T03:30:42.787Z,6.60
2017-04-07T03:32:48.331Z,6.40
2017-04-07T03:33:46.221Z,6.30
2017-04-07T03:34:43.882Z,6.40
2017-04-07T03:35:42.180Z,6.60
2017-04-07T03:36:39.840Z,6.60
2017-04-07T03:37:37.482Z,6.50
2017-04-07T03:38:35.291Z,6.50
2017-04-07T03:39:33.168Z,6.60
2017-04-07T03:40:30.918Z,6.60
2017-04-07T03:41:28.643Z,6.60
2017-04-07T03:42:26.842Z,6.50
2017-04-07T03:43:24.767Z,6.50
2017-04-07T03:44:22.564Z,6.40
2017-04-07T03:45:20.380Z,6.30
2017-04-07T03:46:18.854Z,6.20
2017-04-07T03:47:16.549Z,6.40
2017-04-07T03:48:14.856Z,6.50
2017-04-07T03:49:12.519Z,6.60
2017-04-07T03:50:10.540Z,6.60
2017-04-07T03:51:08.356Z,6.60
2017-04-07T03:52:06.300Z,6.50
2017-04-07T03:53:04.141Z,6.50
2017-04-07T03:54:01.776Z,6.50
2017-04-07T03:54:59.433Z,6.50
2017-04-07T03:55:58.498Z,6.60
2017-04-07T03:56:56.195Z,6.70
2017-04-07T03:57:54.677Z,6.80
2017-04-07T03:58:52.524Z,6.80
2017-04-07T03:59:50.175Z,6.90
2017-04-07T04:00:48.299Z,7.00
2017-04-07T04:01:46.235Z,7.00
2017-04-07T04:02:43.860Z,7.10
2017-04-07T04:03:41.487Z,7.10
2017-04-07T04:04:39.349Z,7.10
2017-04-07T04:05:37.031Z,7.10
2017-04-07T04:06:34.685Z,7.10
2017-04-07T04:07:32.768Z,7.00
2017-04-07T04:08:30.376Z,7.10
2017-04-07T04:09:28.217Z,7.10
2017-04-07T04:10:26.048Z,7.30
2017-04-07T04:11:23.698Z,7.30
2017-04-07T04:12:21.544Z,7.30
2017-04-07T04:13:19.983Z,7.30
2017-04-07T04:14:17.825Z,7.20
2017-04-07T04:15:15.673Z,7.00
2017-04-07T04:16:13.428Z,7.00
2017-04-07T04:17:11.868Z,6.90
2017-04-07T04:18:09.737Z,6.80
2017-04-07T04:19:07.491Z,6.70
2017-04-07T04:20:06.359Z,6.70
2017-04-07T04:21:04.319Z,6.50
2017-04-07T04:22:03.640Z,6.30
2017-04-07T04:23:01.475Z,6.10
2017-04-07T04:24:00.240Z,6.10
2017-04-07T04:24:57.867Z,6.10
2017-04-07T04:25:55.872Z,6.20
2017-04-07T04:26:53.912Z,6.10
2017-04-07T04:27:51.743Z,6.20
2017-04-07T04:28:49.508Z,6.20
2017-04-07T04:29:47.312Z,6.30
2017-04-07T04:30:46.017Z,6.30
2017-04-07T04:31:43.731Z,6.30
2017-04-07T04:32:41.353Z,6.30
2017-04-07T04:33:39.061Z,6.30
2017-04-07T04:34:36.776Z,6.30
2017-04-07T04:39:46.700Z,6.10
2017-04-07T04:40:45.364Z,6.10
2017-04-07T04:41:43.231Z,5.40
2017-04-07T04:42:44.033Z,5.40
2017-04-07T04:43:41.759Z,5.60
2017-04-07T04:44:39.407Z,5.70
2017-04-07T04:45:37.536Z,5.80
2017-04-07T04:46:35.248Z,5.90
2017-04-07T04:47:32.907Z,6.10
2017-04-07T04:48:30.556Z,5.90
2017-04-07T04:49:28.192Z,6.00
2017-04-07T04:50:25.943Z,6.00
2017-04-07T04:51:23.604Z,6.00
2017-04-07T04:52:21.812Z,6.00
2017-04-07T04:53:20.563Z,5.90
2017-04-07T04:54:18.300Z,5.90
2017-04-07T04:55:16.071Z,5.80
2017-04-07T04:56:13.761Z,5.80
2017-04-07T04:57:11.624Z,5.80
2017-04-07T04:58:09.383Z,5.90
2017-04-07T04:59:07.058Z,5.80
2017-04-07T05:00:05.377Z,5.80
2017-04-07T05:01:03.236Z,5.80
2017-04-07T05:02:00.944Z,5.70
2017-04-07T05:02:58.588Z,5.70
2017-04-07T05:03:56.558Z,5.60
2017-04-07T05:04:54.985Z,5.40
2017-04-07T05:05:53.672Z,5.30
2017-04-07T05:06:51.353Z,5.30
2017-04-07T05:07:49.011Z,5.30
2017-04-07T05:08:46.660Z,5.20
2017-04-07T05:09:44.505Z,5.10
2017-04-07T05:10:42.492Z,5.10
2017-04-07T05:11:41.504Z,5.00
2017-04-07T05:12:39.125Z,5.00
2017-04-07T05:13:36.786Z,5.00
2017-04-07T05:14:34.438Z,5.00
2017-04-07T05:15:32.169Z,4.80
2017-04-07T05:16:29.912Z,4.80
2017-04-07T05:17:27.768Z,5.00
2017-04-07T05:18:26.139Z,4.90
2017-04-07T05:19:23.784Z,4.80
2017-04-07T05:20:21.652Z,4.90
2017-04-07T05:21:19.532Z,4.80
2017-04-07T05:22:17.603Z,4.80
2017-04-07T05:23:18.309Z,4.80
2017-04-07T05:24:16.521Z,5.00
2017-04-07T05:25:14.648Z,5.20
2017-04-07T05:26:12.411Z,5.20
2017-04-07T05:27:10.083Z,5.20
2017-04-07T05:28:07.926Z,5.40
2017-04-07T05:29:05.613Z,5.30
2017-04-07T05:30:03.496Z,5.40
2017-04-07T05:31:01.925Z,5.50
2017-04-07T05:31:59.877Z,5.50
2017-04-07T05:32:57.700Z,5.50
2017-04-07T05:33:55.336Z,5.60
2017-04-07T05:34:54.044Z,5.60
2017-04-07T05:35:51.967Z,5.60
2017-04-07T05:36:50.184Z,5.70
2017-04-07T05:38:11.516Z,5.60
2017-04-07T05:39:50.855Z,5.60
2017-04-07T05:41:00.165Z,5.70
2017-04-07T05:42:21.154Z,5.80
2017-04-07T05:43:33.006Z,5.70
2017-04-07T05:44:30.656Z,5.70
2017-04-07T05:45:28.368Z,5.60
2017-04-07T05:46:26.083Z,5.70
2017-04-07T05:47:23.892Z,5.70
2017-04-07T05:48:21.779Z,5.60
2017-04-07T05:49:19.503Z,5.60
2017-04-07T05:50:18.091Z,5.70
2017-04-07T05:51:15.880Z,5.90
2017-04-07T05:52:13.491Z,5.90
2017-04-07T05:53:11.327Z,6.00
2017-04-07T05:54:09.571Z,6.10
2017-04-07T05:55:07.501Z,6.20
2017-04-07T05:56:05.269Z,6.40
2017-04-07T05:57:03.160Z,6.40
2017-04-07T05:58:00.787Z,6.30
2017-04-07T05:58:58.918Z,6.30
2017-04-07T05:59:56.609Z,6.40
2017-04-07T06:00:55.072Z,6.40
2017-04-07T06:01:53.456Z,6.40
2017-04-07T06:02:51.483Z,6.20
2017-04-07T06:03:50.276Z,6.20
2017-04-07T06:04:48.056Z,6.40
2017-04-07T06:05:46.048Z,6.40
2017-04-07T06:06:43.753Z,6.30
2017-04-07T06:07:41.433Z,6.50
2017-04-07T06:08:39.831Z,6.60
2017-04-07T06:09:37.520Z,6.70
2017-04-07T06:10:35.331Z,6.90
2017-04-07T06:11:33.045Z,7.00
2017-04-07T06:12:31.234Z,7.10
2017-04-07T06:13:28.869Z,7.30
2017-04-07T06:14:26.606Z,7.40
2017-04-07T06:15:24.825Z,7.40
2017-04-07T06:16:22.517Z,7.30
2017-04-07T06:17:20.992Z,7.30
2017-04-07T06:18:18.647Z,7.40
2017-04-07T06:19:16.303Z,7.40
2017-04-07T06:20:13.979Z,7.40
2017-04-07T06:21:12.005Z,7.40
2017-04-07T06:22:09.680Z,7.40
2017-04-07T06:23:07.365Z,7.30
2017-04-07T06:24:05.034Z,7.40
2017-04-07T06:25:02.761Z,7.50
2017-04-07T06:26:00.464Z,7.50
2017-04-07T06:26:59.207Z,7.60
2017-04-07T06:27:56.938Z,7.60
2017-04-07T06:28:54.629Z,7.80
2017-04-07T06:29:52.295Z,7.90
2017-04-07T06:30:50.073Z,7.80
2017-04-07T06:31:47.695Z,7.90
2017-04-07T06:32:45.827Z,7.80
2017-04-07T06:33:45.220Z,7.70
2017-04-07T06:34:42.879Z,7.80
2017-04-07T06:35:40.585Z,7.80
2017-04-07T06:36:38.367Z,7.70
2017-04-07T06:37:36.040Z,7.60
2017-04-07T06:38:34.412Z,7.60
2017-04-07T06:39:32.182Z,7.80
2017-04-07T06:40:29.940Z,7.70
2017-04-07T06:41:27.573Z,7.70
2017-04-07T06:42:25.288Z,7.90
2017-04-07T06:43:23.003Z,8.00
2017-04-07T06:44:21.121Z,8.10
2017-04-07T06:45:18.840Z,8.10
2017-04-07T06:46:16.553Z,8.20
2017-04-07T06:47:14.320Z,8.20
2017-04-07T06:48:12.008Z,8.30
2017-04-07T06:49:09.717Z,8.30
2017-04-07T06:50:08.659Z,8.30
2017-04-07T06:51:06.304Z,8.20
2017-04-07T06:52:04.080Z,8.20
2017-04-07T06:53:02.604Z,8.20
2017-04-07T06:54:00.396Z,8.30
2017-04-07T06:54:58.099Z,8.30
2017-04-07T06:55:57.113Z,8.50
2017-04-07T06:56:54.772Z,8.50
2017-04-07T06:57:52.409Z,8.60
2017-04-07T06:58:50.067Z,8.80
2017-04-07T06:59:48.016Z,9.00
2017-04-07T07:00:46.608Z,9.10
2017-04-07T07:01:44.305Z,9.20
2017-04-07T07:02:50.271Z,9.20
2017-04-07T07:03:48.043Z,9.10
2017-04-07T07:04:46.359Z,9.00
2017-04-07T07:05:45.013Z,8.90
2017-04-07T07:06:43.273Z,8.90
2017-04-07T07:07:40.925Z,9.00
2017-04-07T07:08:38.576Z,9.00
2017-04-07T07:09:36.247Z,8.90
2017-04-07T07:10:34.276Z,8.90
2017-04-07T07:11:32.052Z,8.90
2017-04-07T07:12:29.976Z,8.80
2017-04-07T07:13:27.643Z,8.80
2017-04-07T07:14:25.327Z,9.00
2017-04-07T07:15:23.070Z,9.00
2017-04-07T07:16:20.715Z,9.10
2017-04-07T07:17:18.359Z,9.20
2017-04-07T07:18:16.020Z,9.40
2017-04-07T07:19:13.687Z,9.50
2017-04-07T07:20:12.564Z,9.50
2017-04-07T07:21:10.236Z,9.50
2017-04-07T07:22:07.905Z,9.50
2017-04-07T07:23:05.576Z,9.60
2017-04-07T07:24:03.325Z,9.50
2017-04-07T07:25:01.675Z,9.50
2017-04-07T07:25:59.699Z,9.60
2017-04-07T07:26:57.404Z,9.60
2017-04-07T07:27:55.086Z,9.70
2017-04-07T07:28:52.777Z,9.70
2017-04-07T07:29:50.488Z,9.80
2017-04-07T07:30:48.171Z,9.80
2017-04-07T07:31:46.220Z,9.80
2017-04-07T07:32:43.909Z,9.80
2017-04-07T07:33:42.588Z,9.70
2017-04-07T07:34:40.248Z,9.70
2017-04-07T07:35:37.993Z,9.70
2017-04-07T07:36:35.673Z,9.80
2017-04-07T07:37:33.348Z,9.70
2017-04-07T07:38:31.819Z,9.80
2017-04-07T07:39:29.544Z,9.70
2017-04-07T07:40:27.636Z,9.60
2017-04-07T07:41:25.266Z,9.70
2017-04-07T07:42:22.952Z,9.80
2017-04-07T07:43:20.619Z,9.90
2017-04-07T07:44:18.281Z,9.80
2017-04-07T07:45:16.415Z,9.90
2017-04-07T07:46:14.144Z,10.10
2017-04-07T07:47:12.371Z,10.30
2017-04-07T07:48:10.056Z,10.30
2017-04-07T07:49:08.016Z,10.30
2017-04-07T07:50:05.780Z,10.40
2017-04-07T07:51:03.501Z,10.50
2017-04-07T07:52:01.736Z,10.40
2017-04-07T07:52:59.440Z,10.50
2017-04-07T07:53:57.284Z,10.50
2017-04-07T07:54:54.952Z,10.60
2017-04-07T07:55:52.700Z,10.60
2017-04-07T07:56:50.406Z,10.70
2017-04-07T07:57:48.058Z,10.70
2017-04-07T07:58:45.801Z,10.80
2017-04-07T07:59:44.768Z,10.80
2017-04-07T08:00:42.521Z,10.80
2017-04-07T08:01:40.797Z,10.60
2017-04-07T08:02:38.490Z,10.40
2017-04-07T08:03:36.113Z,10.40
2017-04-07T08:04:34.120Z,10.50
2017-04-07T08:05:32.339Z,10.50
2017-04-07T08:06:30.985Z,10.50
2017-04-07T08:07:28.725Z,10.50
2017-04-07T08:08:27.013Z,10.50
2017-04-07T08:09:25.267Z,10.50
2017-04-07T08:10:22.944Z,10.60
2017-04-07T08:11:22.337Z,10.60
2017-04-07T08:12:20.509Z,10.60
2017-04-07T08:13:18.184Z,10.60
2017-04-07T08:14:15.859Z,10.60
2017-04-07T08:15:13.620Z,10.60
2017-04-07T08:16:11.595Z,10.60
2017-04-07T08:17:09.305Z,10.60
2017-04-07T08:18:07.008Z,10.60
2017-04-07T08:19:05.376Z,10.60
2017-04-07T08:20:03.137Z,10.50
2017-04-07T08:21:00.925Z,10.50
2017-04-07T08:21:58.601Z,10.40
2017-04-07T08:22:56.804Z,10.40
2017-04-07T08:23:54.470Z,10.40
2017-04-07T08:24:52.156Z,10.40
2017-04-07T08:25:49.895Z,10.50
2017-04-07T08:26:47.544Z,10.60
2017-04-07T08:27:45.411Z,10.60
2017-04-07T08:28:43.070Z,10.60
2017-04-07T08:29:40.998Z,10.70
2017-04-07T08:30:40.659Z,10.90
2017-04-07T08:31:38.312Z,10.80
2017-04-07T08:32:36.000Z,10.90
2017-04-07T08:33:33.656Z,10.90
2017-04-07T08:34:31.672Z,11.00
2017-04-07T08:35:30.167Z,11.10
2017-04-07T08:36:27.880Z,11.10
2017-04-07T08:37:25.816Z,11.10
2017-04-07T08:38:24.346Z,11.10
2017-04-07T08:39:21.997Z,11.00
2017-04-07T08:40:20.141Z,11.10
2017-04-07T08:41:17.866Z,10.90
2017-04-07T08:42:15.529Z,11.00
2017-04-07T08:43:15.435Z,11.00
2017-04-07T08:44:13.102Z,11.00
2017-04-07T08:45:11.444Z,11.00
2017-04-07T08:46:09.189Z,11.10
2017-04-07T08:47:06.895Z,11.20
2017-04-07T08:48:04.589Z,11.30
2017-04-07T08:49:02.665Z,11.30
2017-04-07T08:50:00.413Z,11.30
2017-04-07T08:50:58.128Z,11.40
2017-04-07T08:51:56.032Z,11.50
2017-04-07T08:52:54.398Z,11.60
2017-04-07T08:53:52.096Z,11.60
2017-04-07T08:54:50.012Z,11.60
2017-04-07T08:55:47.704Z,11.60
2017-04-07T08:56:45.382Z,11.50
2017-04-07T08:57:43.779Z,11.50
2017-04-07T08:58:41.444Z,11.50
2017-04-07T08:59:39.100Z,11.50
2017-04-07T09:00:37.197Z,11.60
2017-04-07T09:01:34.861Z,11.70
2017-04-07T09:02:32.945Z,11.70
2017-04-07T09:03:30.606Z,11.70
2017-04-07T09:04:28.296Z,11.80
2017-04-07T09:05:26.117Z,11.80
2017-04-07T09:06:23.844Z,11.90
2017-04-07T09:07:21.504Z,12.00
2017-04-07T09:08:19.199Z,12.10
2017-04-07T09:09:16.867Z,12.10
2017-04-07T09:10:14.932Z,12.20
2017-04-07T09:11:12.615Z,12.20
2017-04-07T09:12:10.311Z,12.30
2017-04-07T09:13:08.004Z,12.40
2017-04-07T09:14:05.664Z,12.40
2017-04-07T09:15:03.387Z,12.50
2017-04-07T09:16:01.364Z,12.50
2017-04-07T09:16:59.098Z,12.50
2017-04-07T09:17:56.785Z,12.60
2017-04-07T09:18:55.340Z,12.70
2017-04-07T09:19:52.977Z,12.70
2017-04-07T09:20:50.732Z,12.80
2017-04-07T09:21:49.001Z,12.80
2017-04-07T09:22:46.695Z,12.90
2017-04-07T09:23:44.431Z,12.90
2017-04-07T09:24:42.609Z,13.00
2017-04-07T09:25:40.404Z,12.90
2017-04-07T09:26:38.144Z,12.90
2017-04-07T09:27:35.802Z,13.00
2017-04-07T09:28:33.496Z,13.10
2017-04-07T09:29:31.187Z,13.20
2017-04-07T09:30:31.229Z,13.20
2017-04-07T09:31:28.959Z,13.20
2017-04-07T09:32:26.676Z,13.30
2017-04-07T09:33:24.333Z,13.30
2017-04-07T09:34:22.704Z,13.30
2017-04-07T09:35:20.391Z,13.50
2017-04-07T09:36:18.075Z,13.50
2017-04-07T09:37:15.797Z,13.50
2017-04-07T09:38:13.524Z,13.50
2017-04-07T09:39:11.247Z,13.60
2017-04-07T09:40:09.081Z,13.70
2017-04-07T09:41:06.783Z,13.80
2017-04-07T09:42:04.473Z,14.00
2017-04-07T09:43:02.159Z,13.90
2017-04-07T09:44:00.660Z,14.00
2017-04-07T09:44:58.359Z,14.00
2017-04-07T09:45:56.531Z,14.00
2017-04-07T09:46:54.196Z,14.00
2017-04-07T09:47:51.925Z,14.00
2017-04-07T09:48:50.415Z,14.00
2017-04-07T09:49:48.060Z,14.10
2017-04-07T09:50:45.824Z,14.20
2017-04-07T09:51:43.548Z,14.20
2017-04-07T09:52:41.224Z,14.10
2017-04-07T09:53:38.917Z,14.10
2017-04-07T09:54:36.628Z,14.20
2017-04-07T09:55:34.397Z,14.20
2017-04-07T09:56:32.132Z,14.20
2017-04-07T09:57:30.207Z,14.40
2017-04-07T09:58:27.920Z,14.40
2017-04-07T09:59:26.272Z,14.40
2017-04-07T10:00:24.049Z,14.60
2017-04-07T10:01:21.766Z,14.70
2017-04-07T10:02:19.500Z,14.80
2017-04-07T10:03:17.172Z,14.80
2017-04-07T10:04:14.840Z,14.90
2017-04-07T10:05:12.596Z,14.90
2017-04-07T10:06:10.290Z,14.90
2017-04-07T10:07:07.969Z,14.80
2017-04-07T10:08:05.689Z,14.80
2017-04-07T10:09:04.472Z,14.80
2017-04-07T10:10:02.232Z,14.90
2017-04-07T10:11:00.645Z,14.90
2017-04-07T10:11:58.369Z,14.90
2017-04-07T10:12:55.995Z,15.00
2017-04-07T10:13:53.648Z,15.00
2017-04-07T10:14:51.859Z,15.00
2017-04-07T10:15:49.568Z,15.10
2017-04-07T10:16:47.863Z,15.20
2017-04-07T10:17:45.538Z,15.30
2017-04-07T10:18:43.236Z,15.30
2017-04-07T10:19:40.952Z,15.30
2017-04-07T10:20:38.752Z,15.40
2017-04-07T10:21:36.425Z,15.50
2017-04-07T10:22:34.120Z,15.70
2017-04-07T10:23:32.347Z,15.80
2017-04-07T10:24:30.044Z,15.80
2017-04-07T10:25:27.848Z,15.90
2017-04-07T10:26:25.572Z,16.00
2017-04-07T10:27:23.227Z,16.20
2017-04-07T10:28:20.916Z,16.40
2017-04-07T10:29:18.601Z,16.50
2017-04-07T10:30:17.639Z,16.60
2017-04-07T10:31:15.288Z,16.70
2017-04-07T10:32:12.990Z,16.80
2017-04-07T10:33:10.680Z,17.00
2017-04-07T10:34:08.335Z,17.10
2017-04-07T10:35:06.119Z,17.30
2017-04-07T10:36:03.977Z,17.50
2017-04-07T10:37:02.353Z,17.70
2017-04-07T10:38:00.057Z,18.00
2017-04-07T10:38:58.391Z,18.30
2017-04-07T10:39:56.063Z,18.40
2017-04-07T10:40:53.811Z,18.70
2017-04-07T10:41:51.528Z,18.80
2017-04-07T10:42:49.207Z,19.00
2017-04-07T10:43:46.944Z,19.20
2017-04-07T10:44:44.663Z,19.50
2017-04-07T10:45:43.836Z,19.80
2017-04-07T10:46:41.611Z,20.10
2017-04-07T10:47:39.260Z,20.60
2017-04-07T10:48:36.960Z,21.10
2017-04-07T10:49:34.636Z,21.40
2017-04-07T10:50:32.462Z,21.70
2017-04-07T10:51:31.469Z,22.00
2017-04-07T10:52:29.172Z,22.30
2017-04-07T10:53:27.792Z,22.70
2017-04-07T10:54:25.532Z,23.10
2017-04-07T10:55:24.255Z,23.50
2017-04-07T10:56:21.956Z,24.00
2017-04-07T10:57:19.635Z,24.20
2017-04-07T10:58:17.319Z,24.30
2017-04-07T10:59:14.979Z,24.50
2017-04-07T11:00:13.690Z,24.80
2017-04-07T11:01:11.901Z,25.00
2017-04-07T11:02:09.592Z,25.50
2017-04-07T11:03:07.312Z,25.80
2017-04-07T11:04:05.019Z,26.00
2017-04-07T11:05:02.856Z,26.30
2017-04-07T11:06:01.225Z,26.60
2017-04-07T11:06:58.954Z,26.70
2017-04-07T11:07:56.714Z,26.80
2017-04-07T11:08:54.415Z,27.00
2017-04-07T11:09:52.076Z,27.20
2017-04-07T11:10:50.143Z,27.50
2017-04-07T11:11:47.805Z,27.50
2017-04-07T11:12:45.525Z,27.60
2017-04-07T11:13:43.214Z,27.90
2017-04-07T11:14:40.910Z,28.20
2017-04-07T11:15:38.598Z,28.50
2017-04-07T11:16:36.589Z,29.10
2017-04-07T11:17:34.284Z,29.50
2017-04-07T11:18:31.982Z,29.90
2017-04-07T11:19:29.645Z,30.10
2017-04-07T11:20:27.367Z,30.20
2017-04-07T11:21:25.057Z,30.30
2017-04-07T11:22:22.808Z,30.50
2017-04-07T11:23:20.508Z,30.80
2017-04-07T11:24:18.184Z,30.70
2017-04-07T11:25:17.113Z,30.80
2017-04-07T11:26:14.839Z,30.80
2017-04-07T11:27:12.533Z,31.00
2017-04-07T11:28:10.332Z,31.30
2017-04-07T11:29:08.044Z,31.50
2017-04-07T11:30:05.793Z,31.40
2017-04-07T11:31:04.312Z,31.40
2017-04-07T11:32:02.533Z,31.50
2017-04-07T11:33:00.187Z,31.50
2017-04-07T11:33:57.841Z,31.30
2017-04-07T11:34:55.552Z,31.30
2017-04-07T11:35:53.305Z,31.30
2017-04-07T11:36:50.984Z,31.50
2017-04-07T11:37:48.668Z,31.70
2017-04-07T11:38:46.325Z,32.10
2017-04-07T11:39:43.975Z,32.40
2017-04-07T11:40:41.669Z,32.70
2017-04-07T11:41:39.368Z,33.10
2017-04-07T11:42:37.427Z,33.20
2017-04-07T11:43:35.073Z,33.20
2017-04-07T11:44:34.372Z,33.50
2017-04-07T11:45:32.184Z,33.90
2017-04-07T11:46:29.923Z,34.20
2017-04-07T11:47:27.636Z,34.40
2017-04-07T11:48:25.326Z,34.80
2017-04-07T11:49:23.028Z,34.70
2017-04-07T11:50:21.124Z,34.80
2017-04-07T11:51:18.857Z,34.90
2017-04-07T11:52:16.551Z,34.80
2017-04-07T11:53:14.365Z,34.90
2017-04-07T11:54:12.072Z,34.80
2017-04-07T11:55:09.828Z,34.70
2017-04-07T11:56:08.180Z,34.80
2017-04-07T11:57:06.525Z,34.90
2017-04-07T11:58:04.845Z,34.90
2017-04-07T11:59:02.586Z,35.20
2017-04-07T12:00:00.300Z,35.50
2017-04-07T12:00:58.056Z,35.50
2017-04-07T12:01:56.325Z,35.30
2017-04-07T12:02:54.023Z,35.10
2017-04-07T12:03:51.677Z,34.80
2017-04-07T12:04:49.696Z,34.80
2017-04-07T12:05:47.492Z,35.00
2017-04-07T12:06:45.205Z,34.90
2017-04-07T12:07:42.875Z,35.00
2017-04-07T12:08:40.640Z,35.10
2017-04-07T12:09:38.342Z,35.10
2017-04-07T12:10:36.156Z,35.30
2017-04-07T12:11:33.830Z,35.40
2017-04-07T12:12:31.571Z,35.60
2017-04-07T12:13:30.190Z,35.70
2017-04-07T12:14:27.863Z,36.00
2017-04-07T12:15:25.659Z,36.30
2017-04-07T12:17:26.304Z,36.40
2017-04-07T12:18:24.014Z,36.50
2017-04-07T12:19:21.716Z,36.30
2017-04-07T12:20:19.438Z,36.70
2017-04-07T12:21:17.928Z,36.70
2017-04-07T12:22:15.688Z,37.00
2017-04-07T12:23:13.413Z,37.20
2017-04-07T12:24:11.134Z,37.20
2017-04-07T12:25:08.887Z,37.00
2017-04-07T12:26:07.364Z,37.00
2017-04-07T12:27:05.120Z,37.20
2017-04-07T12:28:03.519Z,37.10
2017-04-07T12:29:02.132Z,37.10
2017-04-07T12:29:59.792Z,37.10
2017-04-07T12:30:57.555Z,37.30
2017-04-07T12:31:55.248Z,37.40
2017-04-07T12:32:52.924Z,37.60
2017-04-07T12:33:50.605Z,37.60
2017-04-07T12:34:48.249Z,37.80
2017-04-07T12:35:46.013Z,37.80
2017-04-07T12:36:43.688Z,37.60
2017-04-07T12:37:41.368Z,37.70
2017-04-07T12:38:39.843Z,37.80
2017-04-07T12:39:37.529Z,37.90
2017-04-07T12:40:36.400Z,37.90
2017-04-07T12:41:34.072Z,38.10
2017-04-07T12:42:31.820Z,38.20
2017-04-07T12:43:29.507Z,38.40
2017-04-07T12:44:27.416Z,38.40
2017-04-07T12:45:25.245Z,38.40
2017-04-07T12:46:23.534Z,38.40
2017-04-07T12:47:21.248Z,38.30
2017-04-07T12:48:18.964Z,38.10
2017-04-07T12:49:16.666Z,38.20
2017-04-07T12:50:14.745Z,38.20
2017-04-07T12:51:12.410Z,38.30